Time;durP1;ratioP1;P1;durP2;ratioP2;P2;SDS_P1;SDS_P2;PMS_P1;PMS_P2;Temp;Humidity;BMP_temperature;BMP_pressure;BME280_temperature;BME280_humidity;BME280_pressure;Samples;Min_cycle;Max_cycle;Signal;HPM_P1;HPM_P2
2022/01/27 00:01:46;;;;;;;54.47;19.17;;;;;;;;;;5035644;28;20034;-86
2022/01/27 00:04:18;;;;;;;63.60;20.38;;;;;;;;;;5036227;28;20045;-86
2022/01/27 00:06:44;;;;;;;56.97;18.40;;;;;;;;;;5035344;28;20037;-86
2022/01/27 00:09:23;;;;;;;52.78;17.77;;;;;;;;;;5017660;28;20034;-87
2022/01/27 00:11:49;;;;;;;48.72;18.52;;;;;;;;;;5034613;28;20037;-87
2022/01/27 00:14:18;;;;;;;49.92;18.33;;;;;;;;;;5017023;28;20078;-87
2022/01/27 00:16:53;;;;;;;56.88;20.27;;;;;;;;;;5034715;28;20087;-87
2022/01/27 00:19:19;;;;;;;51.45;18.88;;;;;;;;;;5021883;28;20013;-86
2022/01/27 00:21:45;;;;;;;78.30;18.50;;;;;;;;;;5054975;28;20021;-86
2022/01/27 00:24:11;;;;;;;66.38;18.48;;;;;;;;;;5036886;28;20021;-86
2022/01/27 00:26:37;;;;;;;52.65;18.67;;;;;;;;;;5037016;28;20400;-87
2022/01/27 00:29:03;;;;;;;57.17;18.95;;;;;;;;;;5054620;28;20028;-86
2022/01/27 00:31:29;;;;;;;56.08;20.42;;;;;;;;;;5054541;28;20033;-86
2022/01/27 00:33:55;;;;;;;62.45;20.90;;;;;;;;;;5055748;28;20054;-85
2022/01/27 00:36:22;;;;;;;51.97;19.85;;;;;;;;;;5054905;28;20021;-86
2022/01/27 00:38:49;;;;;;;64.85;20.60;;;;;;;;;;5056709;28;20478;-86
2022/01/27 00:41:19;;;;;;;76.15;20.60;;;;;;;;;;5060867;28;20079;-90
2022/01/27 00:43:46;;;;;;;53.95;20.23;;;;;;;;;;5059843;28;20388;-85
2022/01/27 00:46:16;;;;;;;58.92;21.05;;;;;;;;;;5054496;28;20043;-86
2022/01/27 00:48:42;;;;;;;79.18;22.63;;;;;;;;;;5055129;28;20028;-87
2022/01/27 00:51:10;;;;;;;68.38;19.63;;;;;;;;;;5055032;28;20028;-86
2022/01/27 00:53:51;;;;;;;60.75;18.88;;;;;;;;;;5054413;28;20075;-85
2022/01/27 00:56:25;;;;;;;60.53;20.80;;;;;;;;;;5054182;28;20106;-86
2022/01/27 01:01:22;;;;;;;57.00;18.52;;;;;;;;;;5050145;28;20018;-86
2022/01/27 01:03:50;;;;;;;52.08;17.85;;;;;;;;;;5016071;28;20058;-86
2022/01/27 01:06:36;;;;;;;62.85;20.63;;;;;;;;;;5015717;28;20428;-86
2022/01/27 01:19:20;;;;;;;75.97;20.50;;;;;;;;;;5037786;28;20021;-87
2022/01/27 01:35:06;;;;;;;63.13;18.60;;;;;;;;;;5038092;28;20401;-87
2022/01/27 01:37:37;;;;;;;64.88;21.08;;;;;;;;;;5037688;28;20025;-87
2022/01/27 01:40:04;;;;;;;54.08;19.77;;;;;;;;;;5037878;28;20055;-87
2022/01/27 01:42:31;;;;;;;52.95;18.40;;;;;;;;;;5025457;28;20037;-89
2022/01/27 01:45:01;;;;;;;68.47;18.90;;;;;;;;;;5042471;28;20041;-87
2022/01/27 01:47:27;;;;;;;59.13;19.13;;;;;;;;;;5037417;28;20021;-88
2022/01/27 01:49:53;;;;;;;65.50;19.38;;;;;;;;;;5036776;28;20029;-87
2022/01/27 01:52:19;;;;;;;69.90;20.00;;;;;;;;;;5034998;28;20423;-85
2022/01/27 01:54:45;;;;;;;73.65;22.42;;;;;;;;;;5032956;28;20048;-87
2022/01/27 01:57:11;;;;;;;62.95;20.80;;;;;;;;;;5032892;28;20346;-87
2022/01/27 01:59:38;;;;;;;90.18;21.42;;;;;;;;;;5033132;28;20029;-87
2022/01/27 02:02:04;;;;;;;78.40;20.30;;;;;;;;;;5032665;28;20036;-88
2022/01/27 02:04:30;;;;;;;72.35;20.15;;;;;;;;;;5033633;28;20080;-87
2022/01/27 02:07:00;;;;;;;59.38;18.00;;;;;;;;;;5037086;28;20026;-87
2022/01/27 02:09:36;;;;;;;73.32;20.05;;;;;;;;;;5017784;28;20021;-87
2022/01/27 02:17:59;;;;;;;63.45;20.92;;;;;;;;;;5055730;28;20032;-88
2022/01/27 02:20:25;;;;;;;108.32;19.83;;;;;;;;;;5057637;28;20036;-87
2022/01/27 02:22:51;;;;;;;63.50;21.52;;;;;;;;;;5039045;28;20029;-87
2022/01/27 02:25:20;;;;;;;68.43;20.90;;;;;;;;;;5057853;28;20040;-87
2022/01/27 02:27:46;;;;;;;62.58;21.90;;;;;;;;;;5056980;28;20028;-88
2022/01/27 02:30:12;;;;;;;61.05;20.15;;;;;;;;;;5056676;28;20027;-87
2022/01/27 02:32:38;;;;;;;65.55;21.65;;;;;;;;;;5039234;28;20074;-86
2022/01/27 02:35:05;;;;;;;63.85;19.80;;;;;;;;;;5056882;28;20486;-87
2022/01/27 02:37:31;;;;;;;66.97;19.75;;;;;;;;;;5045757;28;20029;-89
2022/01/27 02:39:57;;;;;;;62.47;19.55;;;;;;;;;;5080937;28;20017;-90
2022/01/27 02:42:30;;;;;;;68.38;21.08;;;;;;;;;;5051552;28;20021;-87
2022/01/27 02:45:04;;;;;;;62.08;18.17;;;;;;;;;;5036747;28;20083;-87
2022/01/27 02:47:30;;;;;;;65.32;20.38;;;;;;;;;;5020141;28;20456;-87
2022/01/27 02:49:56;;;;;;;62.85;19.98;;;;;;;;;;5036251;28;20021;-88
2022/01/27 02:52:22;;;;;;;64.65;19.05;;;;;;;;;;5020459;28;20048;-87
2022/01/27 02:54:48;;;;;;;57.88;17.42;;;;;;;;;;5039319;28;20013;-87
2022/01/27 02:57:14;;;;;;;58.75;18.45;;;;;;;;;;5024372;28;20034;-87
2022/01/27 02:59:40;;;;;;;60.97;18.10;;;;;;;;;;5020350;28;20025;-87
2022/01/27 03:02:06;;;;;;;61.05;17.38;;;;;;;;;;5019108;28;20025;-87
2022/01/27 03:04:34;;;;;;;60.72;17.55;;;;;;;;;;5036524;28;20024;-87
2022/01/27 03:07:00;;;;;;;57.70;18.58;;;;;;;;;;5018256;28;20029;-86
2022/01/27 03:09:26;;;;;;;54.38;18.80;;;;;;;;;;5038917;28;20032;-87
2022/01/27 03:11:57;;;;;;;56.20;18.20;;;;;;;;;;5019037;28;20033;-87
2022/01/27 03:14:23;;;;;;;56.88;17.60;;;;;;;;;;5036302;28;20424;-87
2022/01/27 03:16:54;;;;;;;56.38;17.65;;;;;;;;;;5030578;28;20396;-88
2022/01/27 03:19:20;;;;;;;67.72;18.98;;;;;;;;;;5055726;28;20021;-87
2022/01/27 03:21:46;;;;;;;61.80;19.10;;;;;;;;;;5054677;28;20040;-87
2022/01/27 03:24:13;;;;;;;67.78;17.58;;;;;;;;;;5056286;28;20033;-87
2022/01/27 03:26:40;;;;;;;58.45;17.00;;;;;;;;;;5038910;28;20024;-87
2022/01/27 03:29:06;;;;;;;58.47;18.77;;;;;;;;;;5031314;28;20029;-88
2022/01/27 03:31:32;;;;;;;58.05;18.98;;;;;;;;;;5037809;28;20032;-87
2022/01/27 03:33:58;;;;;;;56.28;19.15;;;;;;;;;;5017863;28;20024;-86
2022/01/27 03:36:25;;;;;;;64.65;19.70;;;;;;;;;;5036002;28;20055;-87
2022/01/27 03:38:51;;;;;;;68.50;19.33;;;;;;;;;;5035628;28;20056;-88
2022/01/27 03:41:22;;;;;;;62.58;19.75;;;;;;;;;;5035724;28;20033;-87
2022/01/27 03:43:48;;;;;;;;;;;;;;;;;;5047066;28;20048;-90
2022/01/27 03:46:14;;;;;;;55.33;18.45;;;;;;;;;;5019640;28;19909;-87
2022/01/27 03:48:40;;;;;;;53.45;18.50;;;;;;;;;;5041117;28;20037;-86
2022/01/27 03:51:06;;;;;;;55.95;18.27;;;;;;;;;;5035555;28;20029;-87
2022/01/27 03:53:32;;;;;;;65.60;20.15;;;;;;;;;;5040177;28;20112;-87
2022/01/27 03:55:58;;;;;;;58.42;18.55;;;;;;;;;;5035462;28;20049;-87
2022/01/27 03:58:24;;;;;;;69.72;18.55;;;;;;;;;;5035258;28;20018;-87
2022/01/27 04:00:50;;;;;;;61.25;18.52;;;;;;;;;;5017058;28;20097;-88
2022/01/27 04:03:18;;;;;;;54.35;18.50;;;;;;;;;;5035446;28;20025;-87
2022/01/27 04:05:51;;;;;;;58.15;19.17;;;;;;;;;;5035452;28;20116;-87
2022/01/27 04:08:18;;;;;;;66.90;19.52;;;;;;;;;;5017204;28;20235;-87
2022/01/27 04:10:44;;;;;;;66.35;18.50;;;;;;;;;;5034900;28;20036;-87
2022/01/27 04:13:10;;;;;;;72.32;20.65;;;;;;;;;;5035260;28;20477;-89
2022/01/27 04:15:37;;;;;;;74.65;20.70;;;;;;;;;;5036346;28;20501;-87
2022/01/27 04:18:03;;;;;;;68.85;20.90;;;;;;;;;;5040005;28;20416;-86
2022/01/27 04:20:29;;;;;;;59.95;18.92;;;;;;;;;;5059622;28;20025;-89
2022/01/27 04:22:55;;;;;;;53.17;17.70;;;;;;;;;;5043711;28;20037;-86
2022/01/27 04:25:21;;;;;;;64.75;19.90;;;;;;;;;;5029412;28;20026;-87
2022/01/27 04:27:52;;;;;;;66.82;19.40;;;;;;;;;;5036335;28;20492;-86
2022/01/27 04:30:21;;;;;;;69.15;19.73;;;;;;;;;;5034947;28;20071;-86
2022/01/27 04:32:51;;;;;;;55.08;16.95;;;;;;;;;;5042687;28;20048;-89
2022/01/27 04:35:20;;;;;;;72.47;20.13;;;;;;;;;;5041670;28;20068;-87
2022/01/27 04:40:32;;;;;;;68.22;16.92;;;;;;;;;;5047019;28;20603;-88
2022/01/27 04:43:13;;;;;;;56.70;18.42;;;;;;;;;;5017085;28;20022;-87
2022/01/27 04:45:51;;;;;;;70.25;19.85;;;;;;;;;;5034315;28;20027;-85
2022/01/27 04:48:20;;;;;;;61.67;18.10;;;;;;;;;;5034319;28;20030;-87
2022/01/27 04:50:46;;;;;;;70.68;19.40;;;;;;;;;;5015889;28;20035;-87
2022/01/27 04:53:29;;;;;;;67.47;19.58;;;;;;;;;;5033491;28;20104;-87
2022/01/27 04:55:57;;;;;;;55.35;17.95;;;;;;;;;;5034255;28;20078;-86
2022/01/27 04:58:30;;;;;;;61.95;19.17;;;;;;;;;;5034200;28;20053;-86
2022/01/27 05:00:59;;;;;;;70.28;18.38;;;;;;;;;;5034113;28;20029;-86
2022/01/27 05:03:44;;;;;;;59.22;17.23;;;;;;;;;;5034314;28;20516;-86
2022/01/27 05:06:10;;;;;;;70.80;19.35;;;;;;;;;;5017984;28;20041;-87
2022/01/27 05:08:36;;;;;;;67.43;17.63;;;;;;;;;;5017612;28;20075;-87
2022/01/27 05:11:09;;;;;;;67.57;18.60;;;;;;;;;;5035006;28;20029;-86
2022/01/27 05:13:41;;;;;;;58.72;16.85;;;;;;;;;;5016442;28;20028;-87
2022/01/27 05:16:07;;;;;;;55.60;16.02;;;;;;;;;;5023192;28;20469;-87
2022/01/27 05:18:33;;;;;;;55.15;16.08;;;;;;;;;;5035506;28;20465;-87
2022/01/27 05:20:59;;;;;;;62.72;18.42;;;;;;;;;;5036256;28;20036;-87
2022/01/27 05:23:25;;;;;;;64.57;17.45;;;;;;;;;;5033650;28;20025;-86
2022/01/27 05:25:51;;;;;;;71.82;19.33;;;;;;;;;;5033577;28;20499;-86
2022/01/27 05:28:17;;;;;;;76.70;19.67;;;;;;;;;;5016007;28;20508;-86
2022/01/27 05:30:43;;;;;;;67.45;18.70;;;;;;;;;;5033466;28;20057;-87
2022/01/27 05:33:09;;;;;;;55.08;16.90;;;;;;;;;;5033034;28;20025;-87
2022/01/27 05:35:36;;;;;;;63.08;19.05;;;;;;;;;;5033119;28;20045;-87
2022/01/27 05:38:03;;;;;;;80.45;18.90;;;;;;;;;;5033072;28;20018;-86
2022/01/27 05:40:29;;;;;;;67.32;18.15;;;;;;;;;;5015368;28;20112;-87
2022/01/27 05:42:55;;;;;;;75.47;17.80;;;;;;;;;;5017791;28;20432;-87
2022/01/27 05:45:21;;;;;;;85.50;18.33;;;;;;;;;;5030154;28;20049;-87
2022/01/27 05:47:47;;;;;;;73.80;19.27;;;;;;;;;;5019358;28;20461;-87
2022/01/27 05:50:13;;;;;;;67.60;19.48;;;;;;;;;;5016739;28;20068;-87
2022/01/27 05:52:39;;;;;;;71.32;19.23;;;;;;;;;;5017310;28;20045;-87
2022/01/27 05:55:06;;;;;;;71.40;18.40;;;;;;;;;;5017730;28;20511;-87
2022/01/27 05:57:32;;;;;;;66.75;16.73;;;;;;;;;;5035573;28;20056;-86
2022/01/27 05:59:58;;;;;;;76.20;19.65;;;;;;;;;;5034052;28;20013;-87
2022/01/27 06:02:24;;;;;;;72.15;18.60;;;;;;;;;;5034137;28;20026;-86
2022/01/27 06:04:50;;;;;;;58.17;16.75;;;;;;;;;;5034786;28;20551;-87
2022/01/27 06:07:16;;;;;;;71.82;17.33;;;;;;;;;;5035384;28;20160;-87
2022/01/27 06:09:42;;;;;;;68.07;18.48;;;;;;;;;;5036304;28;20061;-87
2022/01/27 06:12:09;;;;;;;62.53;18.77;;;;;;;;;;5017629;28;20040;-87
2022/01/27 06:14:35;;;;;;;63.30;17.42;;;;;;;;;;5035583;28;20095;-87
2022/01/27 06:17:00;;;;;;;66.18;19.20;;;;;;;;;;5018156;28;20025;-86
2022/01/27 06:19:28;;;;;;;72.63;18.25;;;;;;;;;;5041302;28;20052;-87
2022/01/27 06:21:54;;;;;;;63.75;18.42;;;;;;;;;;5036453;28;20021;-86
2022/01/27 06:24:20;;;;;;;75.28;17.75;;;;;;;;;;5054049;28;20025;-87
2022/01/27 06:26:46;;;;;;;54.60;16.88;;;;;;;;;;5036899;28;20070;-87
2022/01/27 06:29:12;;;;;;;70.13;16.48;;;;;;;;;;5038973;28;20040;-86
2022/01/27 06:31:38;;;;;;;57.70;17.75;;;;;;;;;;5017866;28;20030;-86
2022/01/27 06:34:04;;;;;;;76.85;18.98;;;;;;;;;;5034949;28;20018;-85
2022/01/27 06:36:30;;;;;;;62.70;18.60;;;;;;;;;;5034711;28;20052;-89
2022/01/27 06:38:56;;;;;;;66.97;17.05;;;;;;;;;;5044553;28;20025;-87
2022/01/27 06:41:22;;;;;;;71.00;18.33;;;;;;;;;;5033643;28;20021;-86
2022/01/27 06:43:49;;;;;;;66.10;18.63;;;;;;;;;;5016273;28;20025;-87
2022/01/27 06:46:15;;;;;;;63.67;17.55;;;;;;;;;;5033797;28;20029;-88
2022/01/27 06:48:41;;;;;;;70.28;17.23;;;;;;;;;;5034342;28;20025;-87
2022/01/27 06:51:07;;;;;;;60.97;16.83;;;;;;;;;;5033824;28;20049;-87
2022/01/27 06:53:33;;;;;;;55.90;15.35;;;;;;;;;;5015752;28;20026;-87
2022/01/27 06:56:00;;;;;;;58.53;16.38;;;;;;;;;;5016754;28;20079;-86
2022/01/27 06:58:26;;;;;;;59.47;16.80;;;;;;;;;;5036304;28;20116;-87
2022/01/27 07:00:53;;;;;;;49.15;16.05;;;;;;;;;;5035988;28;20021;-87
2022/01/27 07:03:19;;;;;;;64.35;17.52;;;;;;;;;;5035799;28;20510;-87
2022/01/27 07:05:46;;;;;;;69.47;18.13;;;;;;;;;;5035740;28;20033;-85
2022/01/27 07:08:11;;;;;;;57.88;17.85;;;;;;;;;;5035137;28;20069;-87
2022/01/27 07:10:37;;;;;;;59.97;16.60;;;;;;;;;;5023806;28;20033;-87
2022/01/27 07:13:04;;;;;;;69.53;17.05;;;;;;;;;;5001465;28;20148;-87
2022/01/27 07:15:30;;;;;;;52.33;16.35;;;;;;;;;;5039770;28;20025;-88
2022/01/27 07:17:56;;;;;;;66.40;16.77;;;;;;;;;;5046350;28;20075;-88
2022/01/27 07:20:22;;;;;;;55.10;16.23;;;;;;;;;;5027933;28;20432;-87
2022/01/27 07:22:48;;;;;;;54.10;16.10;;;;;;;;;;5038236;28;20025;-88
2022/01/27 07:25:14;;;;;;;53.50;16.45;;;;;;;;;;5030970;28;20053;-88
2022/01/27 07:27:41;;;;;;;57.17;15.93;;;;;;;;;;5039466;28;20044;-87
2022/01/27 07:30:07;;;;;;;54.28;16.80;;;;;;;;;;5039618;28;20036;-88
2022/01/27 07:32:33;;;;;;;52.92;16.33;;;;;;;;;;5022385;28;20067;-88
2022/01/27 07:35:01;;;;;;;52.08;16.38;;;;;;;;;;5022603;28;20044;-87
2022/01/27 07:37:27;;;;;;;60.75;17.25;;;;;;;;;;5040553;28;20055;-88
2022/01/27 07:39:52;;;;;;;45.35;14.82;;;;;;;;;;5039939;28;20022;-87
2022/01/27 07:42:18;;;;;;;50.60;15.77;;;;;;;;;;5023946;28;20075;-86
2022/01/27 07:44:44;;;;;;;51.53;14.63;;;;;;;;;;5028201;28;20026;-85
2022/01/27 07:47:12;;;;;;;58.63;17.35;;;;;;;;;;5035162;28;20037;-84
2022/01/27 07:49:38;;;;;;;58.50;15.98;;;;;;;;;;5026839;28;20438;-84
2022/01/27 07:52:04;;;;;;;47.25;16.17;;;;;;;;;;5028163;28;20060;-84
2022/01/27 07:54:30;;;;;;;46.95;14.82;;;;;;;;;;5043110;28;20022;-85
2022/01/27 07:56:56;;;;;;;53.78;16.75;;;;;;;;;;5039896;28;20542;-87
2022/01/27 07:59:22;;;;;;;53.90;16.33;;;;;;;;;;5021997;28;20036;-88
2022/01/27 08:01:48;;;;;;;48.15;15.75;;;;;;;;;;5020488;28;20409;-88
2022/01/27 08:04:14;;;;;;;42.80;14.48;;;;;;;;;;5038995;28;20419;-88
2022/01/27 08:06:40;;;;;;;52.00;15.65;;;;;;;;;;5020236;28;20382;-89
2022/01/27 08:09:06;;;;;;;49.30;14.93;;;;;;;;;;5020994;28;20099;-88
2022/01/27 08:11:32;;;;;;;47.60;15.35;;;;;;;;;;5036326;28;20179;-88
2022/01/27 08:13:58;;;;;;;53.50;16.45;;;;;;;;;;5037771;28;20478;-89
2022/01/27 08:16:24;;;;;;;47.88;16.90;;;;;;;;;;5037784;28;20029;-89
2022/01/27 08:18:50;;;;;;;48.42;15.75;;;;;;;;;;5023404;28;20021;-88
2022/01/27 08:21:16;;;;;;;48.92;15.45;;;;;;;;;;5040325;28;20037;-88
2022/01/27 08:23:44;;;;;;;51.83;15.20;;;;;;;;;;5041544;28;20029;-90
2022/01/27 08:26:13;;;;;;;48.13;16.15;;;;;;;;;;5044650;28;20112;-89
2022/01/27 08:28:48;;;;;;;47.53;15.00;;;;;;;;;;5044880;28;20053;-88
2022/01/27 08:31:15;;;;;;;49.83;14.98;;;;;;;;;;5026992;28;20029;-90
2022/01/27 08:33:41;;;;;;;47.50;15.55;;;;;;;;;;5027865;28;20045;-90
2022/01/27 08:36:07;;;;;;;42.35;14.82;;;;;;;;;;5041239;28;20022;-91
2022/01/27 08:38:36;;;;;;;43.20;14.00;;;;;;;;;;5026482;28;20037;-85
2022/01/27 08:41:04;;;;;;;41.58;13.00;;;;;;;;;;5042138;28;20033;-89
2022/01/27 08:43:30;;;;;;;36.50;11.70;;;;;;;;;;5041483;28;20021;-89
2022/01/27 08:45:58;;;;;;;38.60;14.15;;;;;;;;;;5024851;28;20030;-87
2022/01/27 08:48:26;;;;;;;43.45;15.50;;;;;;;;;;5038987;28;20033;-86
2022/01/27 08:50:58;;;;;;;42.10;14.15;;;;;;;;;;5043939;28;20030;-89
2022/01/27 08:53:25;;;;;;;39.15;13.30;;;;;;;;;;5045943;28;20452;-88
2022/01/27 08:55:51;;;;;;;43.55;13.32;;;;;;;;;;5043820;28;20034;-88
2022/01/27 08:58:17;;;;;;;39.80;14.15;;;;;;;;;;5043229;28;20037;-88
2022/01/27 09:00:43;;;;;;;41.88;14.07;;;;;;;;;;5019042;28;20029;-87
2022/01/27 09:03:09;;;;;;;37.60;13.90;;;;;;;;;;5025960;28;20044;-85
2022/01/27 09:05:35;;;;;;;42.72;13.27;;;;;;;;;;5024066;28;20025;-87
2022/01/27 09:08:01;;;;;;;42.40;14.63;;;;;;;;;;5020190;28;20029;-87
2022/01/27 09:10:31;;;;;;;42.40;14.90;;;;;;;;;;5015941;28;20033;-86
2022/01/27 09:12:57;;;;;;;39.20;13.07;;;;;;;;;;5018478;28;20105;-86
2022/01/27 09:15:24;;;;;;;39.65;13.35;;;;;;;;;;5032906;28;20095;-84
2022/01/27 09:17:50;;;;;;;39.95;13.85;;;;;;;;;;5011399;28;20081;-83
2022/01/27 09:20:16;;;;;;;35.25;13.45;;;;;;;;;;5011698;28;20026;-84
2022/01/27 09:22:42;;;;;;;51.58;14.73;;;;;;;;;;5011971;28;20053;-86
2022/01/27 09:25:14;;;;;;;37.55;12.32;;;;;;;;;;5010736;28;20079;-88
2022/01/27 09:27:42;;;;;;;34.03;12.63;;;;;;;;;;5016354;28;20091;-85
2022/01/27 09:30:09;;;;;;;36.00;13.57;;;;;;;;;;5034935;28;20100;-86
2022/01/27 09:32:36;;;;;;;44.83;14.52;;;;;;;;;;5034353;28;20125;-89
2022/01/27 09:35:02;;;;;;;36.88;13.85;;;;;;;;;;5016027;28;20022;-86
2022/01/27 09:37:28;;;;;;;42.00;13.18;;;;;;;;;;5034546;28;20037;-88
2022/01/27 09:39:54;;;;;;;43.20;13.68;;;;;;;;;;5016597;28;20547;-89
2022/01/27 09:42:21;;;;;;;36.83;13.18;;;;;;;;;;5018722;28;20025;-89
2022/01/27 09:44:52;;;;;;;36.78;12.48;;;;;;;;;;5018024;28;20168;-85
2022/01/27 09:47:18;;;;;;;41.58;12.80;;;;;;;;;;5034584;28;20034;-88
2022/01/27 09:49:54;;;;;;;41.85;12.38;;;;;;;;;;5026744;28;20037;-87
2022/01/27 09:52:20;;;;;;;35.75;12.10;;;;;;;;;;5015660;28;20029;-86
2022/01/27 09:54:46;;;;;;;46.45;14.48;;;;;;;;;;5033456;28;20492;-86
2022/01/27 09:57:17;;;;;;;39.58;12.77;;;;;;;;;;5015950;28;20116;-87
2022/01/27 09:59:44;;;;;;;43.20;13.52;;;;;;;;;;5035181;28;20053;-87
2022/01/27 10:02:14;;;;;;;38.05;13.60;;;;;;;;;;5018807;28;20034;-87
2022/01/27 10:04:43;;;;;;;41.35;14.13;;;;;;;;;;5026009;28;20028;-87
2022/01/27 10:07:10;;;;;;;41.30;13.52;;;;;;;;;;5018647;28;20121;-86
2022/01/27 10:09:36;;;;;;;40.08;14.07;;;;;;;;;;5033805;28;20029;-87
2022/01/27 10:12:04;;;;;;;38.28;13.13;;;;;;;;;;5040896;28;20025;-87
2022/01/27 10:14:36;;;;;;;39.97;13.40;;;;;;;;;;5041845;28;20026;-88
2022/01/27 10:17:04;;;;;;;43.67;14.75;;;;;;;;;;5035941;28;20021;-88
2022/01/27 10:19:31;;;;;;;39.58;13.15;;;;;;;;;;5039931;28;20445;-88
2022/01/27 10:22:04;;;;;;;36.00;13.70;;;;;;;;;;5053769;28;20029;-88
2022/01/27 10:24:32;;;;;;;38.58;14.07;;;;;;;;;;5035944;28;20068;-88
2022/01/27 10:27:45;;;;;;;40.92;15.07;;;;;;;;;;5043060;28;20055;-88
2022/01/27 10:32:49;;;;;;;41.47;13.20;;;;;;;;;;5064780;28;20021;-89
2022/01/27 10:35:15;;;;;;;49.50;15.15;;;;;;;;;;5080104;28;20001;-88
2022/01/27 10:38:00;;;;;;;40.75;13.68;;;;;;;;;;5029315;28;20053;-88
2022/01/27 10:40:38;;;;;;;41.22;14.80;;;;;;;;;;5037297;28;20029;-89
2022/01/27 10:43:24;;;;;;;42.65;14.77;;;;;;;;;;5020625;28;20076;-88
2022/01/27 10:46:00;;;;;;;47.72;14.35;;;;;;;;;;5020604;28;20029;-89
2022/01/27 10:48:30;;;;;;;37.60;13.68;;;;;;;;;;5021739;28;20441;-90
2022/01/27 10:51:15;;;;;;;38.83;13.13;;;;;;;;;;5018149;28;20035;-88
2022/01/27 10:53:50;;;;;;;41.10;14.48;;;;;;;;;;5037257;28;20037;-87
2022/01/27 10:56:22;;;;;;;47.67;14.30;;;;;;;;;;5028661;28;20037;-88
2022/01/27 10:58:48;;;;;;;45.45;15.55;;;;;;;;;;5000077;28;20045;-88
2022/01/27 11:01:34;;;;;;;40.28;14.20;;;;;;;;;;5017297;28;20044;-88
2022/01/27 11:04:01;;;;;;;43.65;14.07;;;;;;;;;;5017806;28;20025;-87
2022/01/27 11:06:50;;;;;;;49.38;14.38;;;;;;;;;;4999792;28;20022;-89
2022/01/27 11:09:16;;;;;;;41.45;14.60;;;;;;;;;;5038486;28;20033;-90
2022/01/27 11:11:53;;;;;;;42.38;15.52;;;;;;;;;;5285482;22;20035;-89
2022/01/27 11:17:34;;;;;;;42.13;15.15;;;;;;;;;;5104990;28;20035;-88
2022/01/27 11:20:22;;;;;;;48.47;18.33;;;;;;;;;;5101021;28;20035;-87
2022/01/27 11:29:25;;;;;;;46.45;15.98;;;;;;;;;;5030682;28;20033;-90
2022/01/27 11:31:59;;;;;;;47.10;16.48;;;;;;;;;;5021679;28;20067;-89
2022/01/27 11:44:39;;;;;;;50.42;19.92;;;;;;;;;;5036707;28;20060;-89
2022/01/27 11:47:37;;;;;;;50.97;19.35;;;;;;;;;;5072158;28;20040;-88
2022/01/27 11:50:31;;;;;;;53.85;18.27;;;;;;;;;;5069244;28;20032;-93
2022/01/27 11:52:57;;;;;;;53.90;17.40;;;;;;;;;;5080813;28;20042;-87
2022/01/27 11:55:44;;;;;;;52.22;18.95;;;;;;;;;;5078273;28;20039;-86
2022/01/27 11:58:16;;;;;;;58.65;18.75;;;;;;;;;;5087278;28;20077;-83
2022/01/27 12:01:01;;;;;;;52.70;19.55;;;;;;;;;;5095948;28;20029;-85
2022/01/27 12:03:27;;;;;;;53.17;18.13;;;;;;;;;;5096287;28;20039;-86
2022/01/27 12:06:22;;;;;;;54.22;20.33;;;;;;;;;;5095624;28;20035;-84
2022/01/27 12:08:48;;;;;;;47.30;18.40;;;;;;;;;;5083359;28;20032;-85
2022/01/27 12:11:55;;;;;;;49.83;19.08;;;;;;;;;;5094761;28;20100;-85
2022/01/27 12:14:27;;;;;;;45.60;17.88;;;;;;;;;;5016282;28;20036;-85
2022/01/27 12:17:08;;;;;;;49.88;19.13;;;;;;;;;;5031251;28;20099;-85
2022/01/27 12:19:47;;;;;;;54.30;20.17;;;;;;;;;;5049138;28;20024;-85
2022/01/27 12:22:50;;;;;;;50.15;19.67;;;;;;;;;;5059585;28;20032;-86
2022/01/27 12:25:16;;;;;;;51.95;19.50;;;;;;;;;;5074014;28;20040;-84
2022/01/27 12:27:49;;;;;;;49.63;19.20;;;;;;;;;;5078319;28;20043;-83
2022/01/27 12:30:15;;;;;;;68.40;25.50;;;;;;;;;;5077960;28;20077;-83
2022/01/27 12:32:41;;;;;;;67.72;24.02;;;;;;;;;;5078644;28;20084;-84
2022/01/27 12:35:09;;;;;;;61.70;24.05;;;;;;;;;;5078128;28;20435;-85
2022/01/27 12:37:39;;;;;;;57.10;21.40;;;;;;;;;;5077204;28;20028;-83
2022/01/27 12:40:09;;;;;;;48.13;19.33;;;;;;;;;;5079441;28;20024;-84
2022/01/27 12:42:37;;;;;;;91.67;37.83;;;;;;;;;;5059482;28;20255;-85
2022/01/27 12:45:04;;;;;;;54.08;20.15;;;;;;;;;;5074451;28;20338;-84
2022/01/27 12:47:31;;;;;;;57.92;20.35;;;;;;;;;;5056783;28;20021;-84
2022/01/27 12:50:06;;;;;;;49.25;19.70;;;;;;;;;;5074586;28;20028;-84
2022/01/27 12:52:43;;;;;;;56.00;21.60;;;;;;;;;;5055838;28;20028;-85
2022/01/27 12:55:13;;;;;;;50.85;20.15;;;;;;;;;;5073728;28;20017;-85
2022/01/27 12:57:42;;;;;;;38.05;14.07;;;;;;;;;;5075325;28;20024;-84
2022/01/27 13:00:11;;;;;;;51.40;18.75;;;;;;;;;;5075805;28;20024;-85
2022/01/27 13:02:37;;;;;;;60.22;22.65;;;;;;;;;;5074068;28;20023;-85
2022/01/27 13:05:03;;;;;;;50.08;19.38;;;;;;;;;;5056441;28;20047;-85
2022/01/27 13:07:29;;;;;;;55.67;20.20;;;;;;;;;;5056911;28;20024;-84
2022/01/27 13:10:08;;;;;;;54.90;19.00;;;;;;;;;;5056022;28;20025;-85
2022/01/27 13:12:42;;;;;;;70.90;21.55;;;;;;;;;;5069289;28;20028;-84
2022/01/27 13:15:11;;;;;;;55.38;21.40;;;;;;;;;;5079738;28;20040;-84
2022/01/27 13:17:52;;;;;;;59.50;19.92;;;;;;;;;;5082398;28;20020;-83
2022/01/27 13:20:35;;;;;;;61.10;18.73;;;;;;;;;;5088530;28;20111;-84
2022/01/27 13:23:07;;;;;;;58.60;20.23;;;;;;;;;;5082087;28;20059;-83
2022/01/27 13:25:40;;;;;;;52.75;21.00;;;;;;;;;;5082331;28;20016;-85
2022/01/27 13:28:10;;;;;;;53.05;20.17;;;;;;;;;;5059357;28;20045;-83
2022/01/27 13:30:37;;;;;;;61.35;20.55;;;;;;;;;;5061132;28;20091;-83
2022/01/27 13:33:09;;;;;;;60.00;20.63;;;;;;;;;;5060780;28;20078;-83
2022/01/27 13:35:35;;;;;;;57.47;19.95;;;;;;;;;;5067938;28;20020;-84
2022/01/27 13:38:22;;;;;;;57.85;20.15;;;;;;;;;;5080199;28;20023;-83
2022/01/27 13:43:41;;;;;;;59.40;20.95;;;;;;;;;;5079785;28;20059;-83
2022/01/27 13:46:09;;;;;;;61.22;21.75;;;;;;;;;;5078442;28;20024;-83
2022/01/27 13:48:42;;;;;;;57.95;21.08;;;;;;;;;;5084168;28;20016;-84
2022/01/27 13:51:08;;;;;;;62.20;21.58;;;;;;;;;;5075945;28;20158;-82
2022/01/27 13:53:34;;;;;;;57.83;24.35;;;;;;;;;;5055342;28;20026;-82
2022/01/27 13:56:01;;;;;;;65.78;22.73;;;;;;;;;;5074680;28;20039;-82
2022/01/27 13:58:29;;;;;;;52.20;21.65;;;;;;;;;;5074314;28;20035;-83
2022/01/27 14:01:11;;;;;;;54.35;20.50;;;;;;;;;;5077738;28;20024;-83
2022/01/27 14:03:44;;;;;;;50.10;18.70;;;;;;;;;;5083115;28;20058;-83
2022/01/27 14:06:11;;;;;;;56.72;21.17;;;;;;;;;;5061176;28;20545;-83
2022/01/27 14:08:37;;;;;;;60.38;20.92;;;;;;;;;;5075581;28;20021;-83
2022/01/27 14:11:03;;;;;;;58.05;20.60;;;;;;;;;;5066551;28;20025;-84
2022/01/27 14:13:29;;;;;;;54.35;20.63;;;;;;;;;;5056546;28;20124;-84
2022/01/27 14:15:55;;;;;;;53.92;21.17;;;;;;;;;;5080262;28;20032;-84
2022/01/27 14:18:25;;;;;;;54.22;20.75;;;;;;;;;;5082087;28;20027;-84
2022/01/27 14:20:55;;;;;;;53.33;19.60;;;;;;;;;;5072859;28;20020;-85
2022/01/27 14:26:36;;;;;;;55.15;20.80;;;;;;;;;;5041419;28;20036;-85
2022/01/27 14:29:07;;;;;;;50.10;20.65;;;;;;;;;;5064562;28;20078;-83
2022/01/27 14:31:34;;;;;;;56.00;21.30;;;;;;;;;;5074880;28;20027;-84
2022/01/27 14:34:00;;;;;;;55.33;20.23;;;;;;;;;;5057333;28;20025;-82
2022/01/27 14:36:26;;;;;;;55.70;20.95;;;;;;;;;;5076352;28;20047;-83
2022/01/27 14:38:52;;;;;;;60.00;21.13;;;;;;;;;;5074962;28;20025;-84
2022/01/27 14:41:20;;;;;;;55.90;21.02;;;;;;;;;;5075418;28;20056;-83
2022/01/27 14:43:46;;;;;;;55.97;20.83;;;;;;;;;;5072777;28;20100;-84
2022/01/27 14:46:15;;;;;;;56.17;20.98;;;;;;;;;;5075052;28;20113;-85
2022/01/27 14:48:45;;;;;;;60.53;21.80;;;;;;;;;;5074830;28;20499;-84
2022/01/27 14:51:13;;;;;;;59.13;21.33;;;;;;;;;;5056350;28;20060;-84
2022/01/27 14:53:42;;;;;;;58.38;19.95;;;;;;;;;;5067747;28;20116;-84
2022/01/27 14:56:08;;;;;;;51.47;21.70;;;;;;;;;;5051628;28;20025;-87
2022/01/27 14:58:35;;;;;;;56.03;21.65;;;;;;;;;;5052566;28;20017;-86
2022/01/27 15:01:02;;;;;;;57.15;20.80;;;;;;;;;;5069783;28;20035;-85
2022/01/27 15:03:28;;;;;;;62.25;21.30;;;;;;;;;;5075689;28;20517;-84
2022/01/27 15:05:54;;;;;;;55.88;22.02;;;;;;;;;;5059122;28;20119;-84
2022/01/27 15:08:20;;;;;;;56.38;21.63;;;;;;;;;;5077890;28;20036;-85
2022/01/27 15:10:46;;;;;;;51.20;18.60;;;;;;;;;;5077578;28;20052;-84
2022/01/27 15:13:12;;;;;;;47.08;19.75;;;;;;;;;;5076400;28;20361;-85
2022/01/27 15:21:09;;;;;;;52.17;21.17;;;;;;;;;;5078647;28;20133;-83
2022/01/27 15:23:36;;;;;;;45.13;18.83;;;;;;;;;;5062041;28;20226;-86
2022/01/27 15:26:03;;;;;;;56.10;20.35;;;;;;;;;;5080780;28;20025;-84
2022/01/27 15:28:29;;;;;;;51.22;19.00;;;;;;;;;;5079731;28;20033;-84
2022/01/27 15:30:56;;;;;;;51.97;21.48;;;;;;;;;;5078402;28;20024;-84
2022/01/27 15:33:23;;;;;;;47.33;19.75;;;;;;;;;;5080001;28;20047;-84
2022/01/27 15:35:49;;;;;;;48.40;18.65;;;;;;;;;;5079874;28;20017;-84